Terminal Aerodrome Forecast
Issued by NWS

Home | Current Version | Previous Version | Text Only | Print | Product List | Glossary On
Versions: 1 2 3 4 5 6 7 8 9 10 11 12
000
FTUS46 KSGX 212320
TAFONT
TAF
KONT 212320Z 2200/2306 25011G18KT P6SM SKC
     FM220400 26008KT P6SM SKC
     FM220700 VRB04KT P6SM SKC
     FM222100 25011G18KT P6SM SKC
     FM230400 26008KT P6SM SKC=

USA.gov is the U.S. government's official web portal to all federal, state and local government web resources and services.